This is the latest recevied weather packets stored in our database for station/object WV8BRW. If no packets are shown the sender has not sent any weather packets the latest 10 day(s).
| Time | Temp. | Humidity | Pressure | Rain* | Wind** | Luminosity | Snow |
|---|---|---|---|---|---|---|---|
| 1777926906 | 23.89° C | 56% | 1007.7 hPa | 0 mm | - | 268 W/m² | - |
| 1777926603 | 24.44° C | 56% | 1007.9 hPa | 0 mm | - | 254 W/m² | - |
| 1777926299 | 24.44° C | 58% | 1007.9 hPa | 0 mm | - | 389 W/m² | - |
| 1777925996 | 24.44° C | 56% | 1008 hPa | 0 mm | - | 720 W/m² | - |
| 1777925693 | 23.89° C | 56% | 1007.9 hPa | 0 mm | - | 751 W/m² | - |
| 1777925390 | 24.44° C | 55% | 1008 hPa | 0 mm | - | 296 W/m² | - |
| 1777925087 | 24.44° C | 54% | 1008 hPa | 0 mm | - | 732 W/m² | - |
| 1777924784 | 24.44° C | 55% | 1008.1 hPa | 0 mm | - | 722 W/m² | - |
| 1777924479 | 23.89° C | 61% | 1008.2 hPa | 0 mm | - | 767 W/m² | - |
| 1777924176 | 23.89° C | 57% | 1008.1 hPa | 0 mm | - | 776 W/m² | - |
| 1777923872 | 23.33° C | 57% | 1008.2 hPa | 0 mm | - | 771 W/m² | - |
| 1777923568 | 22.78° C | 60% | 1008.5 hPa | 0 mm | - | 834 W/m² | - |
| 1777923266 | 22.22° C | 60% | 1008.4 hPa | 0 mm | - | 505 W/m² | - |
| 1777922965 | 22.22° C | 64% | 1008.5 hPa | 0 mm | - | 425 W/m² | - |
| 1777922661 | 21.11° C | 71% | 1008.6 hPa | 0 mm | - | 377 W/m² | - |
| 1777922360 | 21.11° C | 67% | 1008.7 hPa | 0 mm | - | 309 W/m² | - |
| 1777922058 | 21.11° C | 70% | 1008.8 hPa | 0 mm | - | 369 W/m² | - |
| 1777921753 | 20.56° C | 74% | 1008.5 hPa | 0 mm | - | 493 W/m² | - |
| 1777921449 | 19.44° C | 77% | 1008.7 hPa | 0 mm | - | 637 W/m² | - |
| 1777921146 | 18.89° C | 82% | 1009.1 hPa | 0 mm | - | 339 W/m² | - |
| 1777920843 | 18.33° C | 84% | 1009.1 hPa | 1.78 mm | - | 285 W/m² | - |
| 1777920539 | 18.33° C | 81% | 1008.8 hPa | 1.78 mm | - | 210 W/m² | - |
| 1777920235 | 18.33° C | 79% | 1008.5 hPa | 0 mm | - | 171 W/m² | - |
| 1777919931 | 18.89° C | 73% | 1009.5 hPa | 0 mm | - | 104 W/m² | - |
| 1777919628 | 20° C | 66% | 1010 hPa | 0 mm | - | 62 W/m² | - |
* Rain latest hour (hover to see other rain measurements)
** Current wind speed in m/s (hover to see current wind gust speed)